Time;durP1;ratioP1;P1;durP2;ratioP2;P2;SDS_P1;SDS_P2;PMS_P1;PMS_P2;Temp;Humidity;BMP_temperature;BMP_pressure;BME280_temperature;BME280_humidity;BME280_pressure;Samples;Min_cycle;Max_cycle;Signal;HPM_P1;HPM_P2
2021/04/12 00:00:25;;;;;;;5.75;4.18;;;4.90;99.90;;;;;;4997997;28;20071;-82
2021/04/12 00:03:14;;;;;;;5.95;4.63;;;4.80;99.90;;;;;;4994580;28;20046;-83
2021/04/12 00:06:01;;;;;;;5.43;3.75;;;4.70;99.90;;;;;;4983401;28;20404;-81
2021/04/12 00:08:41;;;;;;;5.57;3.75;;;4.60;99.90;;;;;;4984328;28;20118;-83
2021/04/12 00:11:06;;;;;;;5.30;3.72;;;4.50;99.90;;;;;;4989356;28;20070;-84
2021/04/12 00:13:47;;;;;;;4.97;3.60;;;4.50;99.90;;;;;;4988891;28;20031;-82
2021/04/12 00:16:32;;;;;;;6.57;3.95;;;4.40;99.90;;;;;;4986589;28;20049;-83
2021/04/12 00:19:01;;;;;;;5.13;3.72;;;4.40;99.90;;;;;;4985044;28;20046;-83
2021/04/12 00:21:46;;;;;;;6.38;4.32;;;4.40;99.90;;;;;;4983442;28;20034;-83
2021/04/12 00:24:53;;;;;;;6.95;4.80;;;4.40;99.90;;;;;;4980439;28;20042;-84
2021/04/12 00:27:26;;;;;;;8.45;3.97;;;4.30;99.90;;;;;;4982524;28;20202;-83
2021/04/12 00:29:58;;;;;;;6.80;4.50;;;4.20;99.90;;;;;;4986620;28;20157;-83
2021/04/12 00:32:36;;;;;;;6.78;4.82;;;4.20;99.90;;;;;;4983190;28;20034;-83
2021/04/12 00:35:10;;;;;;;8.38;4.72;;;4.20;99.90;;;;;;4980479;28;20054;-83
2021/04/12 00:37:47;;;;;;;5.95;4.38;;;4.10;99.90;;;;;;4993689;28;20110;-82
2021/04/12 00:40:38;;;;;;;7.95;4.65;;;4.20;99.90;;;;;;4983812;28;20038;-82
2021/04/12 00:43:19;;;;;;;7.15;5.20;;;4.20;99.90;;;;;;4976153;28;20030;-82
2021/04/12 00:45:58;;;;;;;6.65;4.53;;;4.10;99.90;;;;;;4981219;28;20039;-82
2021/04/12 00:48:48;;;;;;;7.20;4.97;;;4.20;99.90;;;;;;4988182;28;20081;-83
2021/04/12 00:51:43;;;;;;;7.03;4.65;;;4.10;99.90;;;;;;4979152;28;20062;-83
2021/04/12 00:54:27;;;;;;;;;;;4.00;99.90;;;;;;4984780;28;20765;-83
2021/04/12 00:57:28;;;;;;;7.55;4.93;;;4.10;99.90;;;;;;4993009;28;19940;-82
2021/04/12 01:00:16;;;;;;;8.07;5.25;;;4.00;99.90;;;;;;4977151;28;20767;-83
2021/04/12 01:02:55;;;;;;;7.80;5.03;;;4.10;99.90;;;;;;4976810;28;20046;-82
2021/04/12 01:05:39;;;;;;;9.60;5.80;;;3.90;99.90;;;;;;4977301;28;20417;-84
2021/04/12 01:08:31;;;;;;;10.15;5.72;;;4.00;99.90;;;;;;4991282;28;20063;-82
2021/04/12 01:11:30;;;;;;;7.53;4.93;;;3.80;99.90;;;;;;4968049;28;20043;-82
2021/04/12 01:14:28;;;;;;;8.45;5.05;;;3.80;99.90;;;;;;4970382;28;20038;-83
2021/04/12 01:17:12;;;;;;;9.68;6.35;;;3.80;99.90;;;;;;4981098;28;20806;-83
2021/04/12 01:20:21;;;;;;;7.93;5.82;;;3.80;99.90;;;;;;4982987;28;20043;-83
2021/04/12 01:23:14;;;;;;;9.07;6.40;;;3.70;99.90;;;;;;4976250;28;20557;-83
2021/04/12 01:26:13;;;;;;;9.27;5.35;;;3.70;99.90;;;;;;4973504;28;20561;-81
2021/04/12 01:28:45;;;;;;;8.85;6.18;;;3.60;99.90;;;;;;4995569;28;20030;-82
2021/04/12 01:31:28;;;;;;;12.35;6.30;;;3.60;99.90;;;;;;5021562;28;20053;-82
2021/04/12 01:34:44;;;;;;;10.40;7.00;;;3.60;99.90;;;;;;5016916;28;20038;-82
2021/04/12 01:37:51;;;;;;;12.50;7.55;;;3.60;99.90;;;;;;4949961;28;20073;-82
2021/04/12 01:40:38;;;;;;;11.50;7.05;;;3.60;99.90;;;;;;4980953;28;20041;-84
2021/04/12 01:43:24;;;;;;;11.02;7.10;;;3.60;99.90;;;;;;4987485;28;20375;-83
2021/04/12 01:46:12;;;;;;;10.10;6.47;;;3.60;99.90;;;;;;4974073;28;20046;-83
2021/04/12 01:48:58;;;;;;;11.00;6.05;;;3.60;99.90;;;;;;4980636;28;20394;-83
2021/04/12 01:51:32;;;;;;;12.77;7.30;;;3.60;99.90;;;;;;4985483;28;20433;-83
2021/04/12 01:54:24;;;;;;;13.25;7.07;;;3.60;99.90;;;;;;5002682;28;20404;-83
2021/04/12 01:57:07;;;;;;;11.63;6.63;;;3.60;99.90;;;;;;5008510;28;20340;-83
2021/04/12 01:59:39;;;;;;;9.20;6.35;;;3.60;99.90;;;;;;4989423;28;20039;-83
2021/04/12 02:02:17;;;;;;;13.32;5.88;;;3.50;99.90;;;;;;4980996;28;20042;-83
2021/04/12 02:05:03;;;;;;;8.95;6.13;;;3.40;99.90;;;;;;4984305;28;20038;-82
2021/04/12 02:07:47;;;;;;;11.25;6.90;;;3.50;99.90;;;;;;5006276;28;20034;-83
2021/04/12 02:10:37;;;;;;;10.03;6.50;;;3.50;99.90;;;;;;4988455;28;20498;-83
2021/04/12 02:13:21;;;;;;;11.35;6.90;;;3.40;99.90;;;;;;4985589;28;20046;-83
2021/04/12 02:16:11;;;;;;;8.27;5.40;;;3.50;99.90;;;;;;4988288;28;20034;-83
2021/04/12 02:19:04;;;;;;;11.25;7.20;;;3.50;99.90;;;;;;4982369;28;20136;-83
2021/04/12 02:22:09;;;;;;;11.30;7.50;;;3.50;99.90;;;;;;4975786;28;20053;-82
2021/04/12 02:25:12;;;;;;;12.60;6.68;;;3.60;99.90;;;;;;4977983;28;20118;-83
2021/04/12 02:28:16;;;;;;;11.23;7.45;;;3.60;99.90;;;;;;4995872;28;20039;-82
2021/04/12 02:30:55;;;;;;;10.95;6.75;;;3.40;99.90;;;;;;4966236;28;20046;-83
2021/04/12 02:33:35;;;;;;;11.30;7.13;;;3.40;99.90;;;;;;4993241;28;20030;-83
2021/04/12 02:36:11;;;;;;;13.05;6.72;;;3.30;99.90;;;;;;4985413;28;20061;-82
2021/04/12 02:38:36;;;;;;;13.95;8.07;;;3.30;99.90;;;;;;4992501;28;20079;-83
2021/04/12 02:41:23;;;;;;;14.60;9.07;;;3.40;99.90;;;;;;4969475;28;20042;-83
2021/04/12 02:43:56;;;;;;;15.82;8.80;;;3.30;99.90;;;;;;4990124;28;20057;-83
2021/04/12 02:46:52;;;;;;;13.77;8.43;;;3.30;99.90;;;;;;4991681;28;20090;-83
2021/04/12 02:49:33;;;;;;;11.02;7.75;;;3.30;99.90;;;;;;4997563;28;20031;-83
2021/04/12 02:52:19;;;;;;;20.20;9.13;;;3.40;99.90;;;;;;4986943;28;22275;-84
2021/04/12 02:55:09;;;;;;;14.25;8.95;;;3.40;99.90;;;;;;4982089;28;20047;-85
2021/04/12 02:58:08;;;;;;;16.58;9.10;;;3.50;99.90;;;;;;4994123;28;20053;-84
2021/04/12 03:00:41;;;;;;;19.55;8.55;;;3.50;99.90;;;;;;4981022;28;20031;-84
2021/04/12 03:03:28;;;;;;;13.93;8.43;;;3.40;99.90;;;;;;4991241;28;20057;-83
2021/04/12 03:06:28;;;;;;;15.57;7.90;;;3.30;99.90;;;;;;4986638;28;20089;-83
2021/04/12 03:09:46;;;;;;;18.27;9.10;;;3.30;99.90;;;;;;4992379;28;20038;-83
2021/04/12 03:12:39;;;;;;;12.75;7.45;;;3.40;99.90;;;;;;4972620;28;20050;-83
2021/04/12 03:15:26;;;;;;;12.88;7.57;;;3.40;99.90;;;;;;4983439;28;20061;-84
2021/04/12 03:17:54;;;;;;;13.15;7.88;;;3.40;99.90;;;;;;4996398;28;20038;-82
2021/04/12 03:20:43;;;;;;;14.38;7.65;;;3.40;99.90;;;;;;5001619;28;20073;-82
2021/04/12 03:23:46;;;;;;;11.15;6.90;;;3.40;99.90;;;;;;4980996;28;20077;-83
2021/04/12 03:26:39;;;;;;;14.23;6.55;;;3.40;99.90;;;;;;4973195;28;20042;-82
2021/04/12 03:29:09;;;;;;;11.85;6.95;;;3.50;99.90;;;;;;4964721;28;20039;-82
2021/04/12 03:32:07;;;;;;;10.00;6.82;;;3.50;99.90;;;;;;4970101;28;20035;-82
2021/04/12 03:34:47;;;;;;;12.77;7.05;;;3.50;99.90;;;;;;4977110;28;20090;-83
2021/04/12 03:37:24;;;;;;;12.70;7.13;;;3.40;99.90;;;;;;4980974;28;20042;-83
2021/04/12 03:40:17;;;;;;;12.55;6.43;;;3.40;99.90;;;;;;4983453;28;20207;-82
2021/04/12 03:43:11;;;;;;;10.32;6.57;;;3.40;99.90;;;;;;4989830;28;20528;-83
2021/04/12 03:46:44;;;;;;;12.13;6.72;;;3.30;99.90;;;;;;4989683;28;20437;-83
2021/04/12 03:49:31;;;;;;;15.43;6.80;;;3.30;99.90;;;;;;4872149;29;20047;-83
2021/04/12 03:52:18;;;;;;;12.25;6.78;;;3.20;99.90;;;;;;4886706;29;20083;-82
2021/04/12 03:55:12;;;;;;;16.63;7.85;;;3.30;99.90;;;;;;4956205;28;20061;-82
2021/04/12 03:58:09;;;;;;;12.65;7.20;;;3.30;99.90;;;;;;4990733;28;20069;-83
2021/04/12 04:00:49;;;;;;;12.05;7.20;;;3.30;99.90;;;;;;4987091;28;20040;-82
2021/04/12 04:03:38;;;;;;;16.77;9.05;;;3.30;99.90;;;;;;5001880;28;20042;-83
2021/04/12 04:06:22;;;;;;;14.60;8.85;;;3.30;99.90;;;;;;5005248;28;20039;-83
2021/04/12 04:09:16;;;;;;;15.77;9.43;;;3.30;99.90;;;;;;4978926;28;20095;-83
2021/04/12 04:11:58;;;;;;;16.93;9.40;;;3.30;99.90;;;;;;4977020;28;20038;-85
2021/04/12 04:14:41;;;;;;;17.00;9.50;;;3.30;99.90;;;;;;4971021;28;20445;-84
2021/04/12 04:17:25;;;;;;;21.83;9.38;;;3.30;99.90;;;;;;4975175;28;20050;-84
2021/04/12 04:20:17;;;;;;;24.00;10.70;;;3.40;99.90;;;;;;4987621;28;20122;-83
2021/04/12 04:23:03;;;;;;;16.27;9.63;;;3.30;99.90;;;;;;4979151;28;20522;-83
2021/04/12 04:26:00;;;;;;;17.67;10.05;;;3.20;99.90;;;;;;4981186;28;20038;-85
2021/04/12 04:28:55;;;;;;;18.48;10.20;;;3.30;99.90;;;;;;4974156;28;20056;-85
2021/04/12 04:31:29;;;;;;;20.42;10.95;;;3.30;99.90;;;;;;4984267;28;20056;-81
2021/04/12 04:34:16;;;;;;;16.30;10.35;;;3.30;99.90;;;;;;4986375;28;20105;-82
2021/04/12 04:36:45;;;;;;;18.00;9.63;;;3.10;99.90;;;;;;4989680;28;20034;-82
2021/04/12 04:39:37;;;;;;;16.60;9.13;;;3.20;99.90;;;;;;4987423;28;20046;-82
2021/04/12 04:42:28;;;;;;;14.52;9.25;;;3.20;99.90;;;;;;4990918;28;20034;-83
2021/04/12 04:45:07;;;;;;;15.57;8.77;;;3.20;99.90;;;;;;4985276;28;20125;-83
2021/04/12 04:48:13;;;;;;;15.70;9.68;;;3.00;99.90;;;;;;4991229;28;20046;-84
2021/04/12 04:51:04;;;;;;;15.27;8.88;;;3.10;99.90;;;;;;4970429;28;20081;-84
2021/04/12 04:53:54;;;;;;;15.07;8.63;;;3.10;99.90;;;;;;4979817;28;20607;-83
2021/04/12 04:56:48;;;;;;;13.55;8.25;;;3.10;99.90;;;;;;4987342;28;20130;-82
2021/04/12 04:59:28;;;;;;;14.30;7.50;;;3.10;99.90;;;;;;4987288;28;20031;-83
2021/04/12 05:02:02;;;;;;;13.45;7.57;;;3.00;99.90;;;;;;5002482;28;20093;-84
2021/04/12 05:05:04;;;;;;;16.50;8.07;;;3.00;99.90;;;;;;4986241;28;20492;-84
2021/04/12 05:07:43;;;;;;;11.45;7.47;;;2.90;99.90;;;;;;4970720;28;20042;-83
2021/04/12 05:10:20;;;;;;;12.13;7.03;;;2.80;99.90;;;;;;4991643;28;20041;-82
2021/04/12 05:13:18;;;;;;;14.30;8.10;;;2.70;99.90;;;;;;4993178;28;20115;-86
2021/04/12 05:15:55;;;;;;;16.40;9.05;;;2.80;99.90;;;;;;4982394;28;20515;-83
2021/04/12 05:18:46;;;;;;;16.20;9.65;;;2.80;99.90;;;;;;4986764;28;20039;-83
2021/04/12 05:21:41;;;;;;;19.38;10.82;;;2.80;99.90;;;;;;4993131;28;20043;-83
2021/04/12 05:24:36;;;;;;;21.92;12.15;;;2.80;99.90;;;;;;4983857;28;20050;-84
2021/04/12 05:27:37;;;;;;;19.23;11.73;;;2.80;99.90;;;;;;4972889;28;20026;-83
2021/04/12 05:30:16;;;;;;;23.05;12.75;;;2.90;99.90;;;;;;4966838;28;20029;-85
2021/04/12 05:32:42;;;;;;;23.52;13.20;;;2.90;99.90;;;;;;4986761;28;20030;-84
2021/04/12 05:35:18;;;;;;;20.55;12.07;;;2.70;99.90;;;;;;4999388;28;20564;-83
2021/04/12 05:38:18;;;;;;;21.75;12.63;;;2.60;99.90;;;;;;5000526;28;20035;-83
2021/04/12 05:40:48;;;;;;;21.90;12.48;;;2.70;99.90;;;;;;4987419;28;20035;-83
2021/04/12 05:43:29;;;;;;;23.63;12.90;;;2.80;99.90;;;;;;5002410;28;20039;-84
2021/04/12 05:46:19;;;;;;;24.63;12.90;;;2.80;99.90;;;;;;4985621;28;20030;-85
2021/04/12 05:49:11;;;;;;;22.00;13.00;;;2.70;99.90;;;;;;4986407;28;20120;-83
2021/04/12 05:52:24;;;;;;;23.63;12.95;;;2.80;99.90;;;;;;4982662;28;20042;-83
2021/04/12 05:55:09;;;;;;;21.88;13.13;;;2.90;99.90;;;;;;4972409;28;20035;-84
2021/04/12 05:58:02;;;;;;;26.65;12.93;;;2.90;99.90;;;;;;4989711;28;20049;-82
2021/04/12 06:01:05;;;;;;;26.08;13.23;;;2.90;99.90;;;;;;4965751;28;20081;-82
2021/04/12 06:03:45;;;;;;;21.23;12.50;;;3.00;99.90;;;;;;4962323;28;20042;-81
2021/04/12 06:06:47;;;;;;;19.27;11.48;;;2.90;99.90;;;;;;4976433;28;20107;-83
2021/04/12 06:09:38;;;;;;;23.23;12.85;;;3.00;99.90;;;;;;4978469;28;20516;-83
2021/04/12 06:12:12;;;;;;;23.70;12.95;;;3.00;99.90;;;;;;4985674;28;20525;-81
2021/04/12 06:14:52;;;;;;;;;;;3.10;99.90;;;;;;4979808;28;20046;-82
2021/04/12 06:17:47;;;;;;;26.05;11.82;;;3.10;99.90;;;;;;4980644;28;19968;-81
2021/04/12 06:20:34;;;;;;;;;;;3.10;99.90;;;;;;4991800;28;20051;-82
2021/04/12 06:23:34;;;;;;;27.20;13.75;;;3.20;99.90;;;;;;4981477;28;23674;-82
2021/04/12 06:26:08;;;;;;;24.88;13.90;;;3.30;99.90;;;;;;4975878;28;20516;-82
2021/04/12 06:28:55;;;;;;;25.75;13.57;;;3.40;99.90;;;;;;4974496;28;20410;-81
2021/04/12 06:31:32;;;;;;;21.35;12.90;;;3.40;99.90;;;;;;4981681;28;20070;-84
2021/04/12 06:34:19;;;;;;;23.00;11.60;;;3.50;99.90;;;;;;4984754;28;20089;-83
2021/04/12 06:37:13;;;;;;;27.48;13.27;;;3.60;99.90;;;;;;4975650;28;20049;-84
2021/04/12 06:40:15;;;;;;;23.23;13.83;;;3.70;99.90;;;;;;4972416;28;20042;-83
2021/04/12 06:43:32;;;;;;;22.80;11.35;;;3.70;99.90;;;;;;4976622;28;20039;-84
2021/04/12 06:46:26;;;;;;;24.25;10.73;;;3.60;99.90;;;;;;4953489;28;20034;-81
2021/04/12 06:49:13;;;;;;;20.85;11.30;;;3.60;99.90;;;;;;4985603;28;20062;-82
2021/04/12 06:52:30;;;;;;;19.42;11.55;;;3.70;99.90;;;;;;5006776;28;20038;-80
2021/04/12 06:55:18;;;;;;;17.15;9.90;;;3.70;99.90;;;;;;4978951;28;20841;-82
2021/04/12 06:58:17;;;;;;;20.67;11.32;;;3.70;99.90;;;;;;4976097;28;20568;-83
2021/04/12 07:01:20;;;;;;;20.67;10.65;;;3.60;99.90;;;;;;4994921;28;20050;-81
2021/04/12 07:04:26;;;;;;;18.33;10.55;;;3.60;99.90;;;;;;4983222;28;20038;-81
2021/04/12 07:07:01;;;;;;;22.70;11.25;;;3.60;99.90;;;;;;4983772;28;20035;-82
2021/04/12 07:10:05;;;;;;;30.02;11.65;;;3.80;99.90;;;;;;4983329;28;20086;-82
2021/04/12 07:12:57;;;;;;;25.25;11.05;;;3.80;99.90;;;;;;4983857;28;20070;-82
2021/04/12 07:15:47;;;;;;;22.25;11.80;;;3.80;99.90;;;;;;4968645;28;20409;-81
2021/04/12 07:18:28;;;;;;;23.17;12.50;;;3.80;99.90;;;;;;4980886;28;20034;-82
2021/04/12 07:21:31;;;;;;;22.42;12.38;;;3.90;99.90;;;;;;4981705;28;20509;-82
2021/04/12 07:24:48;;;;;;;22.77;11.82;;;3.90;99.90;;;;;;4965328;28;20038;-82
2021/04/12 07:27:37;;;;;;;25.92;12.88;;;3.90;99.90;;;;;;4965956;28;20457;-82
2021/04/12 07:30:25;;;;;;;22.90;12.40;;;4.00;99.90;;;;;;4982297;28;20042;-82
2021/04/12 07:33:08;;;;;;;23.63;12.80;;;4.00;99.90;;;;;;5001313;28;20717;-81
2021/04/12 07:36:29;;;;;;;28.88;12.77;;;4.00;99.90;;;;;;4989488;28;20049;-81
2021/04/12 07:39:31;;;;;;;30.42;13.18;;;4.00;99.90;;;;;;4900176;29;20087;-83
2021/04/12 07:42:27;;;;;;;23.83;13.13;;;4.10;99.90;;;;;;4905100;29;20031;-82
2021/04/12 07:45:12;;;;;;;23.85;12.32;;;4.10;99.90;;;;;;4981736;28;20085;-82
2021/04/12 07:47:43;;;;;;;25.65;14.52;;;4.00;99.90;;;;;;4992138;28;20062;-81
2021/04/12 07:50:41;;;;;;;26.60;12.52;;;3.90;99.90;;;;;;4997144;28;20038;-82
2021/04/12 07:53:34;;;;;;;26.85;13.50;;;4.10;99.90;;;;;;4995232;28;20057;-81
2021/04/12 07:56:24;;;;;;;29.02;13.45;;;4.20;99.90;;;;;;4959999;28;20456;-82
2021/04/12 07:59:12;;;;;;;32.20;13.10;;;4.20;99.90;;;;;;4983200;28;20058;-81
2021/04/12 08:02:07;;;;;;;24.33;14.57;;;4.40;99.90;;;;;;4992329;28;20035;-80
2021/04/12 08:05:23;;;;;;;27.10;12.75;;;4.40;99.90;;;;;;4979477;28;20023;-82
2021/04/12 08:08:25;;;;;;;27.55;14.55;;;4.50;99.90;;;;;;4974989;28;20126;-82
2021/04/12 08:11:32;;;;;;;30.52;14.27;;;4.60;99.90;;;;;;4992676;28;20122;-82
2021/04/12 08:14:03;;;;;;;31.33;14.40;;;4.60;99.90;;;;;;4978883;28;20033;-82
2021/04/12 08:17:13;;;;;;;28.85;13.82;;;4.60;99.90;;;;;;4989571;28;20046;-81
2021/04/12 08:20:09;;;;;;;24.00;13.13;;;4.40;99.90;;;;;;4990508;28;20026;-82
2021/04/12 08:22:35;;;;;;;29.92;15.32;;;4.50;99.90;;;;;;5009609;28;20044;-82
2021/04/12 08:25:28;;;;;;;31.20;15.90;;;4.90;99.90;;;;;;5009037;28;20061;-83
2021/04/12 08:28:08;;;;;;;27.90;16.15;;;5.10;99.90;;;;;;5005017;28;20037;-82
2021/04/12 08:31:09;;;;;;;25.92;15.10;;;5.20;99.90;;;;;;4995256;28;20333;-82
2021/04/12 08:33:54;;;;;;;25.17;14.43;;;5.00;99.90;;;;;;4986354;28;20079;-82
2021/04/12 08:36:37;;;;;;;24.70;14.52;;;4.90;99.90;;;;;;4986545;28;20047;-80
2021/04/12 08:39:44;;;;;;;27.17;13.77;;;4.60;99.90;;;;;;4991789;28;20062;-80
2021/04/12 08:42:48;;;;;;;26.88;14.50;;;4.70;99.90;;;;;;4985055;28;20040;-78
2021/04/12 08:45:59;;;;;;;29.77;13.80;;;4.90;99.90;;;;;;4989218;28;20042;-82
2021/04/12 08:48:59;;;;;;;22.95;13.20;;;4.80;99.90;;;;;;4998025;28;20038;-81
2021/04/12 08:52:02;;;;;;;23.13;13.52;;;5.30;99.90;;;;;;4986146;28;20056;-80
2021/04/12 08:55:04;;;;;;;26.15;12.45;;;5.30;99.90;;;;;;4971162;28;20539;-80
2021/04/12 08:57:55;;;;;;;19.40;12.30;;;5.40;99.90;;;;;;4969337;28;20062;-79
2021/04/12 09:00:35;;;;;;;22.88;11.50;;;5.40;99.90;;;;;;4979102;28;20041;-77
2021/04/12 09:03:25;;;;;;;26.98;11.18;;;5.50;99.90;;;;;;4989477;28;20030;-77
2021/04/12 09:06:06;;;;;;;18.42;10.25;;;5.10;99.90;;;;;;4988389;28;20034;-77
2021/04/12 09:08:58;;;;;;;20.80;11.80;;;5.00;99.90;;;;;;4993824;28;20030;-77
2021/04/12 09:11:38;;;;;;;23.63;11.82;;;5.10;99.90;;;;;;4983193;28;20096;-78
2021/04/12 09:14:17;;;;;;;20.25;11.35;;;5.10;99.90;;;;;;5000529;28;20046;-77
2021/04/12 09:16:54;;;;;;;20.00;11.93;;;5.00;99.90;;;;;;4992718;28;20043;-78
2021/04/12 09:19:26;;;;;;;29.40;12.27;;;5.30;99.90;;;;;;4984930;28;20427;-77
2021/04/12 09:22:19;;;;;;;20.90;10.55;;;5.30;99.90;;;;;;5009733;28;20085;-77
2021/04/12 09:25:07;;;;;;;22.08;10.63;;;5.10;99.90;;;;;;4994982;28;20050;-77
2021/04/12 09:27:58;;;;;;;22.55;11.85;;;5.10;99.90;;;;;;4987097;28;20117;-78
2021/04/12 09:31:06;;;;;;;18.23;10.55;;;5.50;99.90;;;;;;4981108;28;20043;-77
2021/04/12 09:33:54;;;;;;;18.83;9.15;;;5.60;99.90;;;;;;4985652;28;20045;-78
2021/04/12 09:36:50;;;;;;;16.77;8.32;;;6.00;99.90;;;;;;4987741;28;20171;-79
2021/04/12 09:39:40;;;;;;;12.65;7.75;;;5.70;99.90;;;;;;4925220;28;92128;-77
2021/04/12 09:42:08;;;;;;;16.02;8.35;;;6.10;99.90;;;;;;4978649;28;20046;-77
2021/04/12 09:45:04;;;;;;;16.65;8.30;;;6.20;96.70;;;;;;4979439;28;20031;-76
2021/04/12 09:47:48;;;;;;;12.27;8.27;;;6.00;97.20;;;;;;4982385;28;20036;-77
2021/04/12 09:50:52;;;;;;;15.25;6.68;;;6.00;97.10;;;;;;4995520;28;20268;-77
2021/04/12 09:53:23;;;;;;;16.63;6.85;;;6.00;97.20;;;;;;4995716;28;20035;-79
2021/04/12 09:56:20;;;;;;;13.27;7.43;;;6.20;96.90;;;;;;4993981;28;20647;-79
2021/04/12 09:59:22;;;;;;;28.70;7.10;;;6.50;95.90;;;;;;4991734;28;20081;-79
2021/04/12 10:02:19;;;;;;;10.43;5.93;;;6.60;95.70;;;;;;4988076;28;20501;-80
2021/04/12 10:05:29;;;;;;;9.15;5.40;;;6.70;92.80;;;;;;4988696;28;20045;-79
2021/04/12 10:08:04;;;;;;;11.60;5.88;;;6.80;94.30;;;;;;4978448;28;20038;-80
2021/04/12 10:10:49;;;;;;;10.18;5.00;;;6.80;91.00;;;;;;5004884;28;20041;-80
2021/04/12 10:13:41;;;;;;;7.63;4.43;;;7.10;87.10;;;;;;4990598;28;20045;-79
2021/04/12 10:16:06;;;;;;;10.95;5.10;;;6.70;83.20;;;;;;4981743;28;20030;-78
2021/04/12 10:19:12;;;;;;;19.73;4.95;;;7.00;83.00;;;;;;5000589;28;20030;-79
2021/04/12 10:22:01;;;;;;;10.32;4.20;;;6.70;79.10;;;;;;4977514;28;20059;-77
2021/04/12 10:25:01;;;;;;;10.77;3.70;;;7.00;82.20;;;;;;4985213;28;20667;-78
2021/04/12 10:27:50;;;;;;;7.22;2.60;;;6.70;75.30;;;;;;4977283;28;20043;-77
2021/04/12 10:30:28;;;;;;;12.13;3.28;;;6.80;72.80;;;;;;4989603;28;20046;-77
2021/04/12 10:33:02;;;;;;;10.15;3.50;;;7.00;70.70;;;;;;4989560;28;20046;-80
2021/04/12 10:35:39;;;;;;;6.55;3.50;;;7.00;67.60;;;;;;4985859;28;20547;-79
2021/04/12 10:38:24;;;;;;;9.25;3.50;;;7.10;64.90;;;;;;5015096;28;20150;-79
2021/04/12 10:41:01;;;;;;;6.43;2.97;;;7.50;65.30;;;;;;4984647;28;20509;-79
2021/04/12 10:43:46;;;;;;;12.73;3.35;;;7.80;67.70;;;;;;4984853;28;20123;-78
2021/04/12 10:46:25;;;;;;;10.02;3.08;;;7.70;63.70;;;;;;4990663;28;20042;-79
2021/04/12 10:49:47;;;;;;;6.25;3.55;;;8.30;64.20;;;;;;4980893;28;20082;-78
2021/04/12 10:52:23;;;;;;;5.53;2.67;;;8.30;63.00;;;;;;4955202;28;20057;-78
2021/04/12 10:55:15;;;;;;;5.22;2.88;;;8.10;58.90;;;;;;4951862;28;20047;-78
2021/04/12 10:58:02;;;;;;;6.65;2.75;;;8.30;60.00;;;;;;4977378;28;20038;-78
2021/04/12 11:00:58;;;;;;;8.38;3.17;;;8.30;57.50;;;;;;4985952;28;20114;-79
2021/04/12 11:03:47;;;;;;;5.82;2.80;;;8.50;57.70;;;;;;4973794;28;20041;-79
2021/04/12 11:06:32;;;;;;;5.05;2.42;;;8.20;57.20;;;;;;4988890;28;20069;-78
2021/04/12 11:09:08;;;;;;;7.90;2.28;;;7.80;57.30;;;;;;4980353;28;20042;-78
2021/04/12 11:11:53;;;;;;;4.75;2.15;;;7.40;54.40;;;;;;4958325;28;20057;-78
2021/04/12 11:15:04;;;;;;;11.75;2.45;;;7.50;58.80;;;;;;4958180;28;20038;-78
2021/04/12 11:17:51;;;;;;;10.13;2.45;;;8.20;58.90;;;;;;4907053;28;20035;-78
2021/04/12 11:20:23;;;;;;;4.30;2.58;;;8.60;56.40;;;;;;4980391;28;20114;-77
2021/04/12 11:22:58;;;;;;;4.30;2.08;;;8.70;53.20;;;;;;4996952;28;20042;-78
2021/04/12 11:25:36;;;;;;;9.18;2.45;;;8.70;51.40;;;;;;4986177;28;20034;-77
2021/04/12 11:28:33;;;;;;;8.45;2.20;;;8.70;55.70;;;;;;4973193;28;20927;-79
2021/04/12 11:31:11;;;;;;;8.73;2.70;;;8.40;57.90;;;;;;4975650;28;20037;-78
2021/04/12 11:33:57;;;;;;;11.40;2.83;;;7.30;56.50;;;;;;4976341;28;20129;-77
2021/04/12 11:36:33;;;;;;;6.25;2.55;;;7.40;61.90;;;;;;4977221;28;20042;-77
2021/04/12 11:39:02;;;;;;;4.55;2.20;;;7.90;62.10;;;;;;4986678;28;20015;-78
2021/04/12 11:41:42;;;;;;;6.13;2.03;;;8.40;54.50;;;;;;4983423;28;20065;-78
2021/04/12 11:44:16;;;;;;;5.80;2.00;;;8.60;52.50;;;;;;4953195;28;20062;-77
2021/04/12 11:47:24;;;;;;;6.43;2.28;;;9.70;51.10;;;;;;4975192;28;20050;-77
2021/04/12 11:50:20;;;;;;;7.25;1.90;;;10.50;41.60;;;;;;4940233;28;20110;-78
2021/04/12 11:52:55;;;;;;;6.68;2.03;;;11.00;34.50;;;;;;4943337;28;20049;-77
2021/04/12 11:55:36;;;;;;;6.90;1.52;;;11.60;38.20;;;;;;4977652;28;20086;-77
2021/04/12 11:58:10;;;;;;;4.07;1.90;;;11.30;29.80;;;;;;4982437;28;20037;-77
2021/04/12 12:00:48;;;;;;;5.22;1.55;;;11.50;29.10;;;;;;4969208;28;21350;-77
2021/04/12 12:03:32;;;;;;;4.90;1.83;;;10.90;27.60;;;;;;4998324;28;20074;-78
2021/04/12 12:06:11;;;;;;;7.18;1.95;;;10.50;30.00;;;;;;4982099;28;20040;-77
2021/04/12 12:08:48;;;;;;;4.45;1.50;;;10.40;33.00;;;;;;4982499;28;20043;-77
2021/04/12 12:11:29;;;;;;;7.03;1.98;;;10.00;32.40;;;;;;4992732;28;20041;-78
2021/04/12 12:14:00;;;;;;;8.13;1.98;;;10.00;35.50;;;;;;4994655;28;20053;-78
2021/04/12 12:16:37;;;;;;;5.65;1.73;;;9.60;38.50;;;;;;4983932;28;20397;-78
2021/04/12 12:19:21;;;;;;;7.75;2.00;;;9.10;37.10;;;;;;5000085;28;20137;-78
2021/04/12 12:22:14;;;;;;;10.68;2.92;;;8.90;41.70;;;;;;4989839;28;20410;-78
2021/04/12 12:24:51;;;;;;;4.20;1.67;;;8.80;40.20;;;;;;4969707;28;20085;-77
2021/04/12 12:27:27;;;;;;;3.40;1.73;;;8.60;43.10;;;;;;4980989;28;20090;-77
2021/04/12 12:30:05;;;;;;;8.52;1.95;;;8.60;43.50;;;;;;4978244;28;20050;-77
2021/04/12 12:32:53;;;;;;;4.68;1.55;;;8.70;46.20;;;;;;4974072;28;20060;-77
2021/04/12 12:35:37;;;;;;;4.43;1.85;;;8.70;42.50;;;;;;4989714;28;20073;-76
2021/04/12 12:38:19;;;;;;;10.10;1.60;;;9.30;43.50;;;;;;4987459;28;20504;-77
2021/04/12 12:40:55;;;;;;;8.50;1.65;;;10.70;30.70;;;;;;4982731;28;20041;-77
2021/04/12 12:43:38;;;;;;;3.05;1.48;;;12.00;29.00;;;;;;4973125;28;20609;-77
2021/04/12 12:46:27;;;;;;;4.53;1.67;;;11.40;27.00;;;;;;4985620;28;20080;-77
2021/04/12 12:49:00;;;;;;;3.50;1.73;;;10.90;27.10;;;;;;4975878;28;20052;-77
2021/04/12 12:51:33;;;;;;;4.93;2.10;;;10.30;29.80;;;;;;4981138;28;20437;-77
2021/04/12 12:54:13;;;;;;;6.47;1.50;;;10.50;32.80;;;;;;4980500;28;20045;-77
2021/04/12 12:56:41;;;;;;;4.10;1.30;;;10.10;33.40;;;;;;4976139;28;20050;-77
2021/04/12 12:59:21;;;;;;;4.78;1.48;;;10.20;29.50;;;;;;4995321;28;20087;-77
2021/04/12 13:01:48;;;;;;;5.30;1.23;;;10.60;25.00;;;;;;4982112;28;20038;-77
2021/04/12 13:04:20;;;;;;;5.93;1.60;;;11.90;23.60;;;;;;4983952;28;20054;-79
2021/04/12 13:06:51;;;;;;;3.75;1.40;;;12.90;21.60;;;;;;4976457;28;20710;-77
2021/04/12 13:09:28;;;;;;;5.35;1.70;;;13.20;21.20;;;;;;4982404;28;20031;-78
2021/04/12 13:11:57;;;;;;;5.32;1.55;;;12.50;21.90;;;;;;4990707;28;20052;-77
2021/04/12 13:14:28;;;;;;;5.35;1.90;;;12.80;23.20;;;;;;4979460;28;20029;-77
2021/04/12 13:16:58;;;;;;;3.45;1.40;;;12.50;22.20;;;;;;4972334;28;20075;-77
2021/04/12 13:19:25;;;;;;;5.60;1.30;;;12.60;20.90;;;;;;4979393;28;20094;-77
2021/04/12 13:22:00;;;;;;;4.03;1.23;;;13.50;22.00;;;;;;4977531;28;20034;-77
2021/04/12 13:24:36;;;;;;;4.88;1.20;;;13.00;17.10;;;;;;4968174;28;20166;-77
2021/04/12 13:27:12;;;;;;;3.25;1.30;;;14.00;20.10;;;;;;4967412;28;20046;-77
2021/04/12 13:29:55;;;;;;;4.53;1.50;;;12.80;20.40;;;;;;4969514;28;20045;-78
2021/04/12 13:32:32;;;;;;;3.58;1.15;;;13.10;21.20;;;;;;4966944;28;20184;-77
2021/04/12 13:35:14;;;;;;;4.75;1.48;;;13.80;21.10;;;;;;4962048;28;20177;-78
2021/04/12 13:37:49;;;;;;;6.07;1.50;;;13.60;18.80;;;;;;4959256;28;20564;-77
2021/04/12 13:40:23;;;;;;;3.20;1.17;;;12.80;20.70;;;;;;4969241;28;25090;-78
2021/04/12 13:42:53;;;;;;;4.40;1.30;;;12.50;21.10;;;;;;4984061;28;20034;-79
2021/04/12 13:45:44;;;;;;;3.17;1.15;;;12.40;21.20;;;;;;4965424;28;20038;-77
2021/04/12 13:48:24;;;;;;;2.90;1.08;;;13.00;19.20;;;;;;4959743;28;20539;-75
2021/04/12 13:50:53;;;;;;;5.05;1.88;;;12.10;20.60;;;;;;4981677;28;20141;-76
2021/04/12 13:53:34;;;;;;;4.28;1.40;;;11.10;22.20;;;;;;4965614;28;20992;-77
2021/04/12 13:56:18;;;;;;;4.03;1.73;;;10.50;23.70;;;;;;4957545;28;20051;-75
2021/04/12 13:58:50;;;;;;;7.25;1.85;;;10.10;25.40;;;;;;4983876;28;20043;-76
2021/04/12 14:01:24;;;;;;;3.08;1.58;;;10.10;26.00;;;;;;4978204;28;20087;-76
2021/04/12 14:04:12;;;;;;;3.92;1.58;;;9.70;27.70;;;;;;4990219;28;20053;-77
2021/04/12 14:07:09;;;;;;;1.85;1.05;;;9.70;31.10;;;;;;4993562;28;20058;-76
2021/04/12 14:09:45;;;;;;;7.53;1.48;;;9.10;29.30;;;;;;4989049;28;20069;-77
2021/04/12 14:12:18;;;;;;;7.75;1.70;;;8.70;32.30;;;;;;4990153;28;20026;-81
2021/04/12 14:14:52;;;;;;;4.82;1.60;;;8.60;31.40;;;;;;4996861;28;20114;-76
2021/04/12 14:17:47;;;;;;;9.83;1.87;;;8.80;32.90;;;;;;4997501;28;20034;-77
2021/04/12 14:20:27;;;;;;;4.82;1.63;;;8.70;35.90;;;;;;4976975;28;20306;-77
2021/04/12 14:22:55;;;;;;;6.20;1.75;;;8.80;34.90;;;;;;4977385;28;20042;-77
2021/04/12 14:25:38;;;;;;;7.07;1.77;;;8.90;34.80;;;;;;4975912;28;20496;-77
2021/04/12 14:28:13;;;;;;;2.88;1.40;;;8.90;36.00;;;;;;4979805;28;20077;-77